sensor_id;sensor_type;location;lat;lon;timestamp;P1;durP1;ratioP1;P2;durP2;ratioP2
62790;SDS011;48830;53.426;10.300;2022-09-09T00:00:17;49.40;;;23.85;;
62790;SDS011;48830;53.426;10.300;2022-09-09T00:02:46;61.17;;;24.33;;
62790;SDS011;48830;53.426;10.300;2022-09-09T00:06:03;39.95;;;24.23;;
62790;SDS011;48830;53.426;10.300;2022-09-09T00:08:18;45.13;;;24.48;;
62790;SDS011;48830;53.426;10.300;2022-09-09T00:11:09;66.82;;;24.52;;
62790;SDS011;48830;53.426;10.300;2022-09-09T00:13:37;45.58;;;23.95;;
62790;SDS011;48830;53.426;10.300;2022-09-09T00:16:15;62.40;;;25.10;;
62790;SDS011;48830;53.426;10.300;2022-09-09T00:21:33;63.67;;;24.70;;
62790;SDS011;48830;53.426;10.300;2022-09-09T00:24:23;43.72;;;23.70;;
62790;SDS011;48830;53.426;10.300;2022-09-09T00:27:01;44.05;;;23.63;;
62790;SDS011;48830;53.426;10.300;2022-09-09T00:29:53;64.20;;;25.02;;
62790;SDS011;48830;53.426;10.300;2022-09-09T00:32:22;59.72;;;23.92;;
62790;SDS011;48830;53.426;10.300;2022-09-09T00:34:54;65.85;;;25.33;;
62790;SDS011;48830;53.426;10.300;2022-09-09T00:37:22;45.10;;;23.45;;
62790;SDS011;48830;53.426;10.300;2022-09-09T00:39:51;50.17;;;22.75;;
62790;SDS011;48830;53.426;10.300;2022-09-09T00:42:31;43.42;;;20.85;;
62790;SDS011;48830;53.426;10.300;2022-09-09T00:50:26;40.03;;;19.98;;
62790;SDS011;48830;53.426;10.300;2022-09-09T00:58:37;30.35;;;19.33;;
62790;SDS011;48830;53.426;10.300;2022-09-09T01:01:04;31.27;;;18.40;;
62790;SDS011;48830;53.426;10.300;2022-09-09T01:11:37;29.45;;;18.67;;
62790;SDS011;48830;53.426;10.300;2022-09-09T01:25:01;26.33;;;17.73;;
62790;SDS011;48830;53.426;10.300;2022-09-09T01:28:08;35.80;;;17.35;;
62790;SDS011;48830;53.426;10.300;2022-09-09T01:30:38;37.60;;;17.00;;
62790;SDS011;48830;53.426;10.300;2022-09-09T01:33:10;44.97;;;17.83;;
62790;SDS011;48830;53.426;10.300;2022-09-09T01:38:25;36.75;;;16.40;;
62790;SDS011;48830;53.426;10.300;2022-09-09T01:40:52;33.45;;;17.88;;
62790;SDS011;48830;53.426;10.300;2022-09-09T01:43:22;27.92;;;17.25;;
62790;SDS011;48830;53.426;10.300;2022-09-09T01:45:54;29.95;;;16.95;;
62790;SDS011;48830;53.426;10.300;2022-09-09T01:48:24;25.30;;;16.67;;
62790;SDS011;48830;53.426;10.300;2022-09-09T01:50:59;26.48;;;16.50;;
62790;SDS011;48830;53.426;10.300;2022-09-09T01:53:25;31.55;;;16.90;;
62790;SDS011;48830;53.426;10.300;2022-09-09T02:01:23;21.27;;;15.25;;
62790;SDS011;48830;53.426;10.300;2022-09-09T02:03:56;40.17;;;17.48;;
62790;SDS011;48830;53.426;10.300;2022-09-09T02:06:27;26.20;;;15.55;;
62790;SDS011;48830;53.426;10.300;2022-09-09T02:09:07;25.98;;;16.55;;
62790;SDS011;48830;53.426;10.300;2022-09-09T02:11:38;28.50;;;16.20;;
62790;SDS011;48830;53.426;10.300;2022-09-09T02:14:21;37.85;;;16.15;;
62790;SDS011;48830;53.426;10.300;2022-09-09T02:16:52;31.30;;;16.23;;
62790;SDS011;48830;53.426;10.300;2022-09-09T02:19:30;33.58;;;16.02;;
62790;SDS011;48830;53.426;10.300;2022-09-09T02:22:22;31.00;;;16.48;;
62790;SDS011;48830;53.426;10.300;2022-09-09T02:24:51;27.55;;;15.45;;
62790;SDS011;48830;53.426;10.300;2022-09-09T02:27:24;25.60;;;14.88;;
62790;SDS011;48830;53.426;10.300;2022-09-09T02:29:51;23.60;;;15.50;;
62790;SDS011;48830;53.426;10.300;2022-09-09T02:32:26;21.77;;;15.02;;
62790;SDS011;48830;53.426;10.300;2022-09-09T02:34:57;22.05;;;14.90;;
62790;SDS011;48830;53.426;10.300;2022-09-09T02:37:28;33.95;;;14.73;;
62790;SDS011;48830;53.426;10.300;2022-09-09T02:40:01;21.38;;;13.85;;
62790;SDS011;48830;53.426;10.300;2022-09-09T02:42:28;38.90;;;13.95;;
62790;SDS011;48830;53.426;10.300;2022-09-09T02:44:56;25.95;;;13.88;;
62790;SDS011;48830;53.426;10.300;2022-09-09T02:47:26;26.52;;;14.95;;
62790;SDS011;48830;53.426;10.300;2022-09-09T02:50:07;23.45;;;13.48;;
62790;SDS011;48830;53.426;10.300;2022-09-09T02:55:41;23.88;;;13.07;;
62790;SDS011;48830;53.426;10.300;2022-09-09T02:58:12;42.17;;;13.23;;
62790;SDS011;48830;53.426;10.300;2022-09-09T03:00:43;30.15;;;14.48;;
62790;SDS011;48830;53.426;10.300;2022-09-09T03:03:11;31.83;;;14.23;;
62790;SDS011;48830;53.426;10.300;2022-09-09T03:05:38;26.23;;;14.05;;
62790;SDS011;48830;53.426;10.300;2022-09-09T03:08:04;27.83;;;14.27;;
62790;SDS011;48830;53.426;10.300;2022-09-09T03:10:31;21.65;;;14.23;;
62790;SDS011;48830;53.426;10.300;2022-09-09T03:12:57;24.25;;;13.68;;
62790;SDS011;48830;53.426;10.300;2022-09-09T03:15:25;21.55;;;13.13;;
62790;SDS011;48830;53.426;10.300;2022-09-09T03:17:54;30.95;;;13.48;;
62790;SDS011;48830;53.426;10.300;2022-09-09T03:20:20;21.55;;;13.93;;
62790;SDS011;48830;53.426;10.300;2022-09-09T03:22:46;23.35;;;13.70;;
62790;SDS011;48830;53.426;10.300;2022-09-09T03:25:12;21.05;;;13.43;;
62790;SDS011;48830;53.426;10.300;2022-09-09T03:27:38;17.83;;;12.90;;
62790;SDS011;48830;53.426;10.300;2022-09-09T03:30:04;17.95;;;13.15;;
62790;SDS011;48830;53.426;10.300;2022-09-09T03:32:30;18.63;;;13.45;;
62790;SDS011;48830;53.426;10.300;2022-09-09T03:34:56;19.30;;;13.32;;
62790;SDS011;48830;53.426;10.300;2022-09-09T03:37:22;23.13;;;13.55;;
62790;SDS011;48830;53.426;10.300;2022-09-09T03:39:49;21.23;;;13.13;;
62790;SDS011;48830;53.426;10.300;2022-09-09T03:42:16;23.92;;;13.27;;
62790;SDS011;48830;53.426;10.300;2022-09-09T03:44:45;23.10;;;13.00;;
62790;SDS011;48830;53.426;10.300;2022-09-09T03:47:19;26.00;;;12.70;;
62790;SDS011;48830;53.426;10.300;2022-09-09T03:49:47;18.95;;;13.50;;
62790;SDS011;48830;53.426;10.300;2022-09-09T03:52:13;19.42;;;13.70;;
62790;SDS011;48830;53.426;10.300;2022-09-09T03:54:40;16.73;;;12.93;;
62790;SDS011;48830;53.426;10.300;2022-09-09T03:57:08;21.35;;;14.07;;
62790;SDS011;48830;53.426;10.300;2022-09-09T03:59:34;23.60;;;14.02;;
62790;SDS011;48830;53.426;10.300;2022-09-09T04:02:00;19.13;;;13.13;;
62790;SDS011;48830;53.426;10.300;2022-09-09T04:04:27;20.85;;;14.23;;
62790;SDS011;48830;53.426;10.300;2022-09-09T04:06:53;20.77;;;12.63;;
62790;SDS011;48830;53.426;10.300;2022-09-09T04:09:18;18.67;;;13.75;;
62790;SDS011;48830;53.426;10.300;2022-09-09T04:11:44;17.98;;;13.82;;
62790;SDS011;48830;53.426;10.300;2022-09-09T04:14:11;17.52;;;13.38;;
62790;SDS011;48830;53.426;10.300;2022-09-09T04:16:38;16.52;;;12.45;;
62790;SDS011;48830;53.426;10.300;2022-09-09T04:19:04;17.23;;;13.23;;
62790;SDS011;48830;53.426;10.300;2022-09-09T04:21:32;16.85;;;13.57;;
62790;SDS011;48830;53.426;10.300;2022-09-09T04:23:59;17.50;;;12.98;;
62790;SDS011;48830;53.426;10.300;2022-09-09T04:26:25;15.18;;;11.85;;
62790;SDS011;48830;53.426;10.300;2022-09-09T04:28:51;16.63;;;12.65;;
62790;SDS011;48830;53.426;10.300;2022-09-09T04:31:21;18.27;;;12.20;;
62790;SDS011;48830;53.426;10.300;2022-09-09T04:33:50;16.83;;;12.60;;
62790;SDS011;48830;53.426;10.300;2022-09-09T04:36:16;16.58;;;12.13;;
62790;SDS011;48830;53.426;10.300;2022-09-09T04:38:44;16.48;;;12.63;;
62790;SDS011;48830;53.426;10.300;2022-09-09T04:41:10;15.95;;;12.02;;
62790;SDS011;48830;53.426;10.300;2022-09-09T04:43:38;15.63;;;11.93;;
62790;SDS011;48830;53.426;10.300;2022-09-09T04:46:06;17.63;;;11.82;;
62790;SDS011;48830;53.426;10.300;2022-09-09T04:48:31;19.17;;;12.75;;
62790;SDS011;48830;53.426;10.300;2022-09-09T04:50:58;16.00;;;12.32;;
62790;SDS011;48830;53.426;10.300;2022-09-09T04:53:25;15.25;;;11.27;;
62790;SDS011;48830;53.426;10.300;2022-09-09T04:55:52;17.02;;;12.00;;
62790;SDS011;48830;53.426;10.300;2022-09-09T04:58:29;14.80;;;10.77;;
62790;SDS011;48830;53.426;10.300;2022-09-09T05:00:55;16.65;;;11.52;;
62790;SDS011;48830;53.426;10.300;2022-09-09T05:03:31;14.95;;;11.27;;
62790;SDS011;48830;53.426;10.300;2022-09-09T05:08:30;15.05;;;10.55;;
62790;SDS011;48830;53.426;10.300;2022-09-09T05:10:55;13.40;;;10.05;;
62790;SDS011;48830;53.426;10.300;2022-09-09T05:13:21;13.80;;;10.32;;
62790;SDS011;48830;53.426;10.300;2022-09-09T05:15:51;18.08;;;11.40;;
62790;SDS011;48830;53.426;10.300;2022-09-09T05:18:18;13.80;;;10.70;;
62790;SDS011;48830;53.426;10.300;2022-09-09T05:20:43;14.48;;;10.73;;
62790;SDS011;48830;53.426;10.300;2022-09-09T05:23:09;14.73;;;11.10;;
62790;SDS011;48830;53.426;10.300;2022-09-09T05:25:39;12.85;;;10.30;;
62790;SDS011;48830;53.426;10.300;2022-09-09T05:28:06;14.48;;;10.50;;
62790;SDS011;48830;53.426;10.300;2022-09-09T05:30:33;13.82;;;10.77;;
62790;SDS011;48830;53.426;10.300;2022-09-09T05:33:00;15.40;;;10.23;;
62790;SDS011;48830;53.426;10.300;2022-09-09T05:35:26;15.23;;;9.95;;
62790;SDS011;48830;53.426;10.300;2022-09-09T05:37:52;13.75;;;10.13;;
62790;SDS011;48830;53.426;10.300;2022-09-09T05:40:18;13.95;;;10.32;;
62790;SDS011;48830;53.426;10.300;2022-09-09T05:42:44;14.13;;;10.00;;
62790;SDS011;48830;53.426;10.300;2022-09-09T05:45:09;13.00;;;10.13;;
62790;SDS011;48830;53.426;10.300;2022-09-09T05:47:35;14.07;;;10.13;;
62790;SDS011;48830;53.426;10.300;2022-09-09T05:50:03;13.52;;;10.05;;
62790;SDS011;48830;53.426;10.300;2022-09-09T05:52:29;11.02;;;8.70;;
62790;SDS011;48830;53.426;10.300;2022-09-09T05:54:56;12.85;;;9.23;;
62790;SDS011;48830;53.426;10.300;2022-09-09T05:57:22;12.68;;;9.15;;
62790;SDS011;48830;53.426;10.300;2022-09-09T05:59:49;13.32;;;9.15;;
62790;SDS011;48830;53.426;10.300;2022-09-09T06:02:15;12.30;;;8.95;;
62790;SDS011;48830;53.426;10.300;2022-09-09T06:04:40;12.38;;;8.65;;
62790;SDS011;48830;53.426;10.300;2022-09-09T06:07:06;11.70;;;8.75;;
62790;SDS011;48830;53.426;10.300;2022-09-09T06:09:32;11.10;;;8.10;;
62790;SDS011;48830;53.426;10.300;2022-09-09T06:11:58;11.77;;;7.55;;
62790;SDS011;48830;53.426;10.300;2022-09-09T06:14:24;11.77;;;8.70;;
62790;SDS011;48830;53.426;10.300;2022-09-09T06:16:51;11.05;;;8.32;;
62790;SDS011;48830;53.426;10.300;2022-09-09T06:19:22;10.05;;;7.63;;
62790;SDS011;48830;53.426;10.300;2022-09-09T06:21:49;11.02;;;8.30;;
62790;SDS011;48830;53.426;10.300;2022-09-09T06:24:15;10.32;;;7.32;;
62790;SDS011;48830;53.426;10.300;2022-09-09T06:26:43;10.15;;;7.55;;
62790;SDS011;48830;53.426;10.300;2022-09-09T06:29:17;11.13;;;7.43;;
62790;SDS011;48830;53.426;10.300;2022-09-09T06:31:43;10.18;;;7.63;;
62790;SDS011;48830;53.426;10.300;2022-09-09T06:34:14;9.13;;;6.72;;
62790;SDS011;48830;53.426;10.300;2022-09-09T06:36:44;12.20;;;7.20;;
62790;SDS011;48830;53.426;10.300;2022-09-09T06:39:11;9.98;;;6.75;;
62790;SDS011;48830;53.426;10.300;2022-09-09T06:41:38;10.63;;;6.90;;
62790;SDS011;48830;53.426;10.300;2022-09-09T06:44:06;11.80;;;7.65;;
62790;SDS011;48830;53.426;10.300;2022-09-09T06:46:39;8.98;;;5.65;;
62790;SDS011;48830;53.426;10.300;2022-09-09T06:49:07;11.68;;;6.22;;
62790;SDS011;48830;53.426;10.300;2022-09-09T06:51:34;8.10;;;5.55;;
62790;SDS011;48830;53.426;10.300;2022-09-09T06:54:03;8.52;;;5.75;;
62790;SDS011;48830;53.426;10.300;2022-09-09T06:56:33;9.52;;;5.32;;
62790;SDS011;48830;53.426;10.300;2022-09-09T06:59:05;9.18;;;5.05;;
62790;SDS011;48830;53.426;10.300;2022-09-09T07:01:37;6.80;;;4.88;;
62790;SDS011;48830;53.426;10.300;2022-09-09T07:04:09;7.35;;;4.68;;
62790;SDS011;48830;53.426;10.300;2022-09-09T07:06:38;9.32;;;4.70;;
62790;SDS011;48830;53.426;10.300;2022-09-09T07:09:12;7.45;;;4.60;;
62790;SDS011;48830;53.426;10.300;2022-09-09T07:11:48;6.82;;;4.30;;
62790;SDS011;48830;53.426;10.300;2022-09-09T07:14:17;7.85;;;4.72;;
62790;SDS011;48830;53.426;10.300;2022-09-09T07:16:46;5.95;;;4.10;;
62790;SDS011;48830;53.426;10.300;2022-09-09T07:19:14;7.13;;;4.03;;
62790;SDS011;48830;53.426;10.300;2022-09-09T07:21:40;6.45;;;3.97;;
62790;SDS011;48830;53.426;10.300;2022-09-09T07:24:08;7.85;;;3.60;;
62790;SDS011;48830;53.426;10.300;2022-09-09T07:26:35;5.70;;;3.50;;
62790;SDS011;48830;53.426;10.300;2022-09-09T07:29:01;6.55;;;3.17;;
62790;SDS011;48830;53.426;10.300;2022-09-09T07:31:29;7.90;;;3.58;;
62790;SDS011;48830;53.426;10.300;2022-09-09T07:33:57;7.00;;;3.10;;
62790;SDS011;48830;53.426;10.300;2022-09-09T07:36:24;5.60;;;3.10;;
62790;SDS011;48830;53.426;10.300;2022-09-09T07:38:55;6.00;;;3.10;;
62790;SDS011;48830;53.426;10.300;2022-09-09T07:41:23;6.15;;;2.90;;
62790;SDS011;48830;53.426;10.300;2022-09-09T07:43:50;5.53;;;3.05;;
62790;SDS011;48830;53.426;10.300;2022-09-09T07:46:19;6.85;;;2.92;;
62790;SDS011;48830;53.426;10.300;2022-09-09T07:48:47;7.90;;;2.78;;
62790;SDS011;48830;53.426;10.300;2022-09-09T07:51:19;4.68;;;2.80;;
62790;SDS011;48830;53.426;10.300;2022-09-09T07:53:51;6.32;;;2.80;;
62790;SDS011;48830;53.426;10.300;2022-09-09T07:56:19;5.55;;;2.50;;
62790;SDS011;48830;53.426;10.300;2022-09-09T07:58:47;4.30;;;2.80;;
62790;SDS011;48830;53.426;10.300;2022-09-09T08:01:19;5.28;;;2.58;;
62790;SDS011;48830;53.426;10.300;2022-09-09T08:03:47;4.85;;;2.55;;
62790;SDS011;48830;53.426;10.300;2022-09-09T08:06:18;5.22;;;2.88;;
62790;SDS011;48830;53.426;10.300;2022-09-09T08:08:44;5.07;;;2.88;;
62790;SDS011;48830;53.426;10.300;2022-09-09T08:11:13;6.00;;;2.88;;
62790;SDS011;48830;53.426;10.300;2022-09-09T08:13:42;7.22;;;2.50;;
62790;SDS011;48830;53.426;10.300;2022-09-09T08:16:13;4.55;;;2.40;;
62790;SDS011;48830;53.426;10.300;2022-09-09T08:18:41;5.65;;;2.42;;
62790;SDS011;48830;53.426;10.300;2022-09-09T08:21:11;3.83;;;2.28;;
62790;SDS011;48830;53.426;10.300;2022-09-09T08:23:39;5.63;;;2.47;;
62790;SDS011;48830;53.426;10.300;2022-09-09T08:26:10;4.53;;;2.40;;
62790;SDS011;48830;53.426;10.300;2022-09-09T08:28:40;5.38;;;2.33;;
62790;SDS011;48830;53.426;10.300;2022-09-09T08:31:11;5.60;;;2.42;;
62790;SDS011;48830;53.426;10.300;2022-09-09T08:33:39;5.28;;;2.50;;
62790;SDS011;48830;53.426;10.300;2022-09-09T08:36:08;3.67;;;2.40;;
62790;SDS011;48830;53.426;10.300;2022-09-09T08:38:35;6.22;;;2.78;;
62790;SDS011;48830;53.426;10.300;2022-09-09T08:44:01;5.25;;;2.80;;
62790;SDS011;48830;53.426;10.300;2022-09-09T08:46:51;9.48;;;2.65;;
62790;SDS011;48830;53.426;10.300;2022-09-09T08:49:30;4.72;;;2.70;;
62790;SDS011;48830;53.426;10.300;2022-09-09T08:52:01;5.43;;;2.60;;
62790;SDS011;48830;53.426;10.300;2022-09-09T08:54:32;8.35;;;2.95;;
62790;SDS011;48830;53.426;10.300;2022-09-09T08:57:00;5.30;;;2.55;;
62790;SDS011;48830;53.426;10.300;2022-09-09T08:59:25;4.85;;;2.40;;
62790;SDS011;48830;53.426;10.300;2022-09-09T09:02:00;6.40;;;2.53;;
62790;SDS011;48830;53.426;10.300;2022-09-09T09:04:53;5.50;;;2.53;;
62790;SDS011;48830;53.426;10.300;2022-09-09T09:07:40;5.40;;;2.42;;
62790;SDS011;48830;53.426;10.300;2022-09-09T09:13:08;8.95;;;2.95;;
62790;SDS011;48830;53.426;10.300;2022-09-09T09:15:39;5.97;;;2.70;;
62790;SDS011;48830;53.426;10.300;2022-09-09T09:18:08;4.35;;;2.50;;
62790;SDS011;48830;53.426;10.300;2022-09-09T09:23:29;4.63;;;2.28;;
62790;SDS011;48830;53.426;10.300;2022-09-09T09:26:05;6.07;;;2.40;;
62790;SDS011;48830;53.426;10.300;2022-09-09T09:28:35;3.33;;;2.10;;
62790;SDS011;48830;53.426;10.300;2022-09-09T09:31:09;4.18;;;2.40;;
62790;SDS011;48830;53.426;10.300;2022-09-09T09:36:34;6.22;;;2.58;;
62790;SDS011;48830;53.426;10.300;2022-09-09T09:39:04;5.53;;;2.30;;
62790;SDS011;48830;53.426;10.300;2022-09-09T09:41:41;4.57;;;2.17;;
62790;SDS011;48830;53.426;10.300;2022-09-09T09:47:15;4.97;;;1.90;;
62790;SDS011;48830;53.426;10.300;2022-09-09T09:49:59;6.97;;;2.05;;
62790;SDS011;48830;53.426;10.300;2022-09-09T09:52:30;4.15;;;2.22;;
62790;SDS011;48830;53.426;10.300;2022-09-09T09:54:59;4.53;;;2.40;;
62790;SDS011;48830;53.426;10.300;2022-09-09T09:57:30;3.90;;;2.08;;
62790;SDS011;48830;53.426;10.300;2022-09-09T10:00:15;6.28;;;2.10;;
62790;SDS011;48830;53.426;10.300;2022-09-09T10:02:47;5.80;;;2.22;;
62790;SDS011;48830;53.426;10.300;2022-09-09T10:05:21;6.03;;;2.17;;
62790;SDS011;48830;53.426;10.300;2022-09-09T10:13:27;6.65;;;2.13;;
62790;SDS011;48830;53.426;10.300;2022-09-09T10:18:47;4.47;;;2.28;;
62790;SDS011;48830;53.426;10.300;2022-09-09T10:27:33;4.07;;;2.00;;
62790;SDS011;48830;53.426;10.300;2022-09-09T10:30:46;3.78;;;1.85;;
62790;SDS011;48830;53.426;10.300;2022-09-09T10:33:21;2.88;;;1.60;;
62790;SDS011;48830;53.426;10.300;2022-09-09T10:38:58;4.32;;;1.70;;
62790;SDS011;48830;53.426;10.300;2022-09-09T10:55:37;4.65;;;2.03;;
62790;SDS011;48830;53.426;10.300;2022-09-09T10:58:12;5.20;;;2.10;;
62790;SDS011;48830;53.426;10.300;2022-09-09T11:00:47;4.07;;;1.90;;
62790;SDS011;48830;53.426;10.300;2022-09-09T11:03:27;3.60;;;1.90;;
62790;SDS011;48830;53.426;10.300;2022-09-09T11:06:04;2.92;;;1.90;;
62790;SDS011;48830;53.426;10.300;2022-09-09T11:08:32;5.15;;;2.10;;
62790;SDS011;48830;53.426;10.300;2022-09-09T11:11:09;3.65;;;1.70;;
62790;SDS011;48830;53.426;10.300;2022-09-09T11:16:53;3.70;;;1.48;;
62790;SDS011;48830;53.426;10.300;2022-09-09T11:21:48;4.13;;;1.60;;
62790;SDS011;48830;53.426;10.300;2022-09-09T11:24:18;7.15;;;2.03;;
62790;SDS011;48830;53.426;10.300;2022-09-09T11:27:25;5.63;;;2.00;;
62790;SDS011;48830;53.426;10.300;2022-09-09T11:38:53;4.25;;;1.80;;
62790;SDS011;48830;53.426;10.300;2022-09-09T11:41:33;5.10;;;1.75;;
62790;SDS011;48830;53.426;10.300;2022-09-09T11:44:08;5.03;;;2.22;;
62790;SDS011;48830;53.426;10.300;2022-09-09T11:46:37;5.10;;;1.85;;
62790;SDS011;48830;53.426;10.300;2022-09-09T11:49:06;6.40;;;2.40;;
62790;SDS011;48830;53.426;10.300;2022-09-09T11:52:23;7.65;;;2.17;;
62790;SDS011;48830;53.426;10.300;2022-09-09T11:57:58;3.50;;;1.80;;
62790;SDS011;48830;53.426;10.300;2022-09-09T12:00:44;7.45;;;2.45;;
62790;SDS011;48830;53.426;10.300;2022-09-09T12:08:39;3.45;;;1.90;;
62790;SDS011;48830;53.426;10.300;2022-09-09T12:11:08;5.28;;;1.98;;
62790;SDS011;48830;53.426;10.300;2022-09-09T12:13:34;4.78;;;2.10;;
62790;SDS011;48830;53.426;10.300;2022-09-09T12:16:00;5.28;;;2.13;;
62790;SDS011;48830;53.426;10.300;2022-09-09T12:18:37;3.00;;;1.92;;
62790;SDS011;48830;53.426;10.300;2022-09-09T12:26:26;3.72;;;2.40;;
62790;SDS011;48830;53.426;10.300;2022-09-09T12:37:15;4.45;;;2.63;;
62790;SDS011;48830;53.426;10.300;2022-09-09T12:42:46;6.60;;;2.47;;
62790;SDS011;48830;53.426;10.300;2022-09-09T12:45:15;6.47;;;2.28;;
62790;SDS011;48830;53.426;10.300;2022-09-09T12:47:50;3.67;;;2.15;;
62790;SDS011;48830;53.426;10.300;2022-09-09T12:52:57;2.13;;;1.50;;
62790;SDS011;48830;53.426;10.300;2022-09-09T12:55:30;2.58;;;1.50;;
62790;SDS011;48830;53.426;10.300;2022-09-09T12:57:58;4.22;;;1.80;;
62790;SDS011;48830;53.426;10.300;2022-09-09T13:00:29;3.20;;;1.60;;
62790;SDS011;48830;53.426;10.300;2022-09-09T13:03:00;4.50;;;1.50;;
62790;SDS011;48830;53.426;10.300;2022-09-09T13:05:28;3.13;;;1.42;;
62790;SDS011;48830;53.426;10.300;2022-09-09T13:08:00;2.58;;;1.60;;
62790;SDS011;48830;53.426;10.300;2022-09-09T13:10:34;1.70;;;1.10;;
62790;SDS011;48830;53.426;10.300;2022-09-09T13:13:03;2.22;;;1.25;;
62790;SDS011;48830;53.426;10.300;2022-09-09T13:15:38;2.47;;;1.33;;
62790;SDS011;48830;53.426;10.300;2022-09-09T13:18:05;4.63;;;1.30;;
62790;SDS011;48830;53.426;10.300;2022-09-09T13:20:36;2.72;;;1.45;;
62790;SDS011;48830;53.426;10.300;2022-09-09T13:23:02;3.72;;;1.50;;
62790;SDS011;48830;53.426;10.300;2022-09-09T13:25:28;3.97;;;1.60;;
62790;SDS011;48830;53.426;10.300;2022-09-09T13:30:30;5.05;;;1.70;;
62790;SDS011;48830;53.426;10.300;2022-09-09T13:35:47;3.35;;;1.70;;
62790;SDS011;48830;53.426;10.300;2022-09-09T13:38:19;4.18;;;1.80;;
62790;SDS011;48830;53.426;10.300;2022-09-09T13:41:03;3.17;;;1.70;;
62790;SDS011;48830;53.426;10.300;2022-09-09T13:43:31;4.75;;;2.33;;
62790;SDS011;48830;53.426;10.300;2022-09-09T13:49:21;4.28;;;2.10;;
62790;SDS011;48830;53.426;10.300;2022-09-09T13:51:49;5.50;;;2.47;;
62790;SDS011;48830;53.426;10.300;2022-09-09T13:54:18;6.47;;;2.30;;
62790;SDS011;48830;53.426;10.300;2022-09-09T13:56:45;4.50;;;2.30;;
62790;SDS011;48830;53.426;10.300;2022-09-09T13:59:14;4.47;;;2.28;;
62790;SDS011;48830;53.426;10.300;2022-09-09T14:01:41;3.80;;;2.17;;
62790;SDS011;48830;53.426;10.300;2022-09-09T14:04:07;4.25;;;2.10;;
62790;SDS011;48830;53.426;10.300;2022-09-09T14:06:36;5.30;;;2.50;;
62790;SDS011;48830;53.426;10.300;2022-09-09T14:09:02;6.78;;;2.97;;
62790;SDS011;48830;53.426;10.300;2022-09-09T14:11:28;6.57;;;2.60;;
62790;SDS011;48830;53.426;10.300;2022-09-09T14:13:53;5.78;;;2.65;;
62790;SDS011;48830;53.426;10.300;2022-09-09T14:16:19;5.28;;;2.50;;
62790;SDS011;48830;53.426;10.300;2022-09-09T14:18:45;7.00;;;3.00;;
62790;SDS011;48830;53.426;10.300;2022-09-09T14:21:11;3.95;;;2.58;;
62790;SDS011;48830;53.426;10.300;2022-09-09T14:23:37;5.05;;;2.05;;
62790;SDS011;48830;53.426;10.300;2022-09-09T14:26:04;2.15;;;1.50;;
62790;SDS011;48830;53.426;10.300;2022-09-09T14:28:30;2.13;;;1.27;;
62790;SDS011;48830;53.426;10.300;2022-09-09T14:30:59;4.50;;;1.52;;
62790;SDS011;48830;53.426;10.300;2022-09-09T14:33:25;2.88;;;1.40;;
62790;SDS011;48830;53.426;10.300;2022-09-09T14:35:55;2.20;;;1.27;;
62790;SDS011;48830;53.426;10.300;2022-09-09T14:38:21;3.72;;;1.65;;
62790;SDS011;48830;53.426;10.300;2022-09-09T14:40:46;3.70;;;1.60;;
62790;SDS011;48830;53.426;10.300;2022-09-09T14:43:12;6.35;;;1.55;;
62790;SDS011;48830;53.426;10.300;2022-09-09T14:45:38;6.47;;;1.52;;
62790;SDS011;48830;53.426;10.300;2022-09-09T14:48:03;6.88;;;1.83;;
62790;SDS011;48830;53.426;10.300;2022-09-09T14:50:29;4.70;;;1.90;;
62790;SDS011;48830;53.426;10.300;2022-09-09T14:52:54;5.75;;;1.60;;
62790;SDS011;48830;53.426;10.300;2022-09-09T14:55:20;4.15;;;2.08;;
62790;SDS011;48830;53.426;10.300;2022-09-09T14:57:46;3.65;;;1.98;;
62790;SDS011;48830;53.426;10.300;2022-09-09T15:00:11;6.07;;;2.30;;
62790;SDS011;48830;53.426;10.300;2022-09-09T15:02:38;4.95;;;2.08;;
62790;SDS011;48830;53.426;10.300;2022-09-09T15:05:04;5.15;;;2.40;;
62790;SDS011;48830;53.426;10.300;2022-09-09T15:07:30;5.72;;;2.10;;
62790;SDS011;48830;53.426;10.300;2022-09-09T15:09:57;8.00;;;2.30;;
62790;SDS011;48830;53.426;10.300;2022-09-09T15:12:23;5.70;;;2.15;;
62790;SDS011;48830;53.426;10.300;2022-09-09T15:14:49;8.35;;;2.70;;
62790;SDS011;48830;53.426;10.300;2022-09-09T15:17:15;5.85;;;2.40;;
62790;SDS011;48830;53.426;10.300;2022-09-09T15:19:41;5.32;;;2.50;;
62790;SDS011;48830;53.426;10.300;2022-09-09T15:22:07;5.88;;;2.42;;
62790;SDS011;48830;53.426;10.300;2022-09-09T15:24:33;3.72;;;2.40;;
62790;SDS011;48830;53.426;10.300;2022-09-09T15:27:00;5.63;;;2.42;;
62790;SDS011;48830;53.426;10.300;2022-09-09T15:29:26;6.22;;;2.75;;
62790;SDS011;48830;53.426;10.300;2022-09-09T15:31:53;6.82;;;2.70;;
62790;SDS011;48830;53.426;10.300;2022-09-09T15:34:19;6.88;;;2.65;;
62790;SDS011;48830;53.426;10.300;2022-09-09T15:36:45;6.10;;;2.60;;
62790;SDS011;48830;53.426;10.300;2022-09-09T15:39:15;5.95;;;2.70;;
62790;SDS011;48830;53.426;10.300;2022-09-09T15:41:43;5.43;;;2.10;;
62790;SDS011;48830;53.426;10.300;2022-09-09T15:44:09;6.97;;;2.65;;
62790;SDS011;48830;53.426;10.300;2022-09-09T15:51:47;6.18;;;2.53;;
62790;SDS011;48830;53.426;10.300;2022-09-09T15:54:17;6.70;;;2.42;;
62790;SDS011;48830;53.426;10.300;2022-09-09T15:56:46;4.88;;;2.30;;
62790;SDS011;48830;53.426;10.300;2022-09-09T15:59:15;4.75;;;2.25;;
62790;SDS011;48830;53.426;10.300;2022-09-09T16:01:41;5.22;;;2.20;;
62790;SDS011;48830;53.426;10.300;2022-09-09T16:04:07;4.63;;;2.40;;
62790;SDS011;48830;53.426;10.300;2022-09-09T16:06:33;4.80;;;2.15;;
62790;SDS011;48830;53.426;10.300;2022-09-09T16:08:59;5.78;;;2.00;;
62790;SDS011;48830;53.426;10.300;2022-09-09T16:11:29;5.05;;;2.20;;
62790;SDS011;48830;53.426;10.300;2022-09-09T16:13:57;4.30;;;2.10;;
62790;SDS011;48830;53.426;10.300;2022-09-09T16:16:24;4.28;;;2.20;;
62790;SDS011;48830;53.426;10.300;2022-09-09T16:18:54;6.10;;;2.45;;
62790;SDS011;48830;53.426;10.300;2022-09-09T16:21:22;2.88;;;1.83;;
62790;SDS011;48830;53.426;10.300;2022-09-09T16:23:54;3.72;;;2.13;;
62790;SDS011;48830;53.426;10.300;2022-09-09T16:26:20;5.30;;;2.20;;
62790;SDS011;48830;53.426;10.300;2022-09-09T16:28:47;4.40;;;2.30;;
62790;SDS011;48830;53.426;10.300;2022-09-09T16:31:14;5.07;;;2.40;;
62790;SDS011;48830;53.426;10.300;2022-09-09T16:33:42;4.00;;;1.92;;
62790;SDS011;48830;53.426;10.300;2022-09-09T16:36:11;3.95;;;2.22;;
62790;SDS011;48830;53.426;10.300;2022-09-09T16:38:39;5.70;;;2.47;;
62790;SDS011;48830;53.426;10.300;2022-09-09T16:41:05;5.53;;;2.40;;
62790;SDS011;48830;53.426;10.300;2022-09-09T16:43:35;6.68;;;2.80;;
62790;SDS011;48830;53.426;10.300;2022-09-09T16:46:02;4.45;;;2.72;;
62790;SDS011;48830;53.426;10.300;2022-09-09T16:48:32;6.97;;;3.05;;
62790;SDS011;48830;53.426;10.300;2022-09-09T16:51:05;5.75;;;3.33;;
62790;SDS011;48830;53.426;10.300;2022-09-09T16:53:32;5.88;;;3.20;;
62790;SDS011;48830;53.426;10.300;2022-09-09T16:56:04;7.50;;;3.10;;
62790;SDS011;48830;53.426;10.300;2022-09-09T16:58:31;9.60;;;3.53;;
62790;SDS011;48830;53.426;10.300;2022-09-09T17:00:59;7.85;;;3.35;;
62790;SDS011;48830;53.426;10.300;2022-09-09T17:03:27;4.95;;;2.83;;
62790;SDS011;48830;53.426;10.300;2022-09-09T17:05:53;5.72;;;2.97;;
62790;SDS011;48830;53.426;10.300;2022-09-09T17:08:18;6.10;;;3.10;;
62790;SDS011;48830;53.426;10.300;2022-09-09T17:10:43;6.85;;;3.38;;